createdAt,value
2023-04-10T00:00:17.651Z,23.83
2023-04-10T00:03:06.945Z,19.35
2023-04-10T00:05:36.396Z,22.17
2023-04-10T00:08:05.419Z,25.15
2023-04-10T00:10:35.835Z,23.65
2023-04-10T00:13:04.828Z,23.88
2023-04-10T00:15:33.787Z,23.08
2023-04-10T00:18:02.541Z,22.30
2023-04-10T00:20:31.642Z,23.00
2023-04-10T00:23:00.382Z,22.23
2023-04-10T00:25:29.475Z,25.95
2023-04-10T00:27:59.587Z,24.83
2023-04-10T00:30:28.801Z,25.10
2023-04-10T00:32:57.626Z,25.10
2023-04-10T00:35:27.034Z,24.38
2023-04-10T00:37:56.988Z,24.38
2023-04-10T00:40:26.628Z,25.65
2023-04-10T00:42:55.384Z,22.70
2023-04-10T00:45:26.449Z,21.33
2023-04-10T00:47:56.741Z,23.83
2023-04-10T00:50:26.213Z,23.48
2023-04-10T00:52:55.031Z,23.42
2023-04-10T00:55:25.621Z,22.25
2023-04-10T00:57:57.503Z,24.30
2023-04-10T01:00:27.902Z,21.25
2023-04-10T01:02:57.179Z,22.40
2023-04-10T01:05:29.864Z,21.33
2023-04-10T01:08:12.711Z,22.65
2023-04-10T01:10:49.928Z,18.48
2023-04-10T01:13:28.916Z,22.63
2023-04-10T01:16:07.211Z,22.48
2023-04-10T01:18:45.562Z,23.42
2023-04-10T01:21:18.148Z,22.52
2023-04-10T01:24:24.816Z,20.73
2023-04-10T01:27:22.578Z,23.42
2023-04-10T01:29:58.638Z,23.50
2023-04-10T01:32:31.697Z,24.02
2023-04-10T01:35:09.167Z,24.17
2023-04-10T01:37:44.355Z,23.85
2023-04-10T01:40:20.493Z,24.98
2023-04-10T01:42:54.124Z,20.77
2023-04-10T01:45:33.701Z,23.27
2023-04-10T01:48:03.133Z,20.88
2023-04-10T01:50:34.906Z,23.23
2023-04-10T01:53:08.105Z,22.52
2023-04-10T01:55:39.118Z,23.80
2023-04-10T01:58:10.991Z,24.60
2023-04-10T02:00:44.038Z,22.83
2023-04-10T02:03:14.909Z,21.25
2023-04-10T02:06:03.494Z,21.88
2023-04-10T02:08:38.890Z,23.98
2023-04-10T02:11:19.105Z,22.20
2023-04-10T02:13:52.288Z,22.67
2023-04-10T02:16:24.311Z,20.58
2023-04-10T02:18:55.900Z,21.83
2023-04-10T02:21:24.775Z,22.70
2023-04-10T02:23:54.290Z,21.10
2023-04-10T02:26:23.191Z,23.02
2023-04-10T02:28:52.321Z,19.70
2023-04-10T02:31:22.422Z,18.80
2023-04-10T02:33:51.588Z,20.85
2023-04-10T02:36:20.673Z,18.88
2023-04-10T02:38:49.730Z,22.95
2023-04-10T02:41:18.707Z,21.10
2023-04-10T02:43:47.831Z,20.42
2023-04-10T02:46:17.236Z,21.23
2023-04-10T02:48:47.632Z,22.73
2023-04-10T02:51:16.391Z,23.10
2023-04-10T02:53:45.456Z,21.55
2023-04-10T02:56:23.926Z,22.33
2023-04-10T02:58:52.958Z,20.08
2023-04-10T03:01:23.533Z,20.33
2023-04-10T03:03:54.737Z,20.88
2023-04-10T03:06:30.064Z,19.98
2023-04-10T03:09:00.169Z,20.15
2023-04-10T03:11:30.646Z,18.10
2023-04-10T03:13:59.735Z,23.67
2023-04-10T03:16:28.512Z,21.33
2023-04-10T03:18:59.465Z,22.38
2023-04-10T03:21:28.774Z,18.95
2023-04-10T03:23:57.795Z,19.85
2023-04-10T03:26:27.909Z,18.92
2023-04-10T03:28:56.983Z,21.48
2023-04-10T03:31:25.767Z,19.10
2023-04-10T03:33:59.858Z,19.98
2023-04-10T03:36:28.620Z,19.48
2023-04-10T03:38:57.714Z,20.08
2023-04-10T03:41:26.507Z,20.60
2023-04-10T03:43:56.154Z,21.67
2023-04-10T03:46:26.170Z,21.63
2023-04-10T03:48:55.819Z,19.85
2023-04-10T03:51:26.879Z,20.92
2023-04-10T03:53:56.051Z,19.23
2023-04-10T03:56:25.214Z,22.88
2023-04-10T03:58:54.328Z,20.90
2023-04-10T04:01:23.995Z,20.35
2023-04-10T04:04:07.307Z,19.48
2023-04-10T04:06:57.518Z,21.50
2023-04-10T04:09:26.591Z,20.05
2023-04-10T04:12:18.003Z,22.38
2023-04-10T04:15:03.977Z,20.67
2023-04-10T04:18:00.659Z,22.30
2023-04-10T04:20:38.343Z,24.50
2023-04-10T04:23:18.771Z,27.33
2023-04-10T04:26:06.895Z,25.73
2023-04-10T04:28:54.402Z,23.60
2023-04-10T04:31:38.808Z,23.73
2023-04-10T04:34:36.397Z,26.58
2023-04-10T04:37:24.010Z,26.60
2023-04-10T04:40:13.488Z,21.75
2023-04-10T04:43:00.861Z,24.60
2023-04-10T04:45:59.801Z,27.73
2023-04-10T04:48:48.788Z,26.80
2023-04-10T04:51:36.044Z,26.48
2023-04-10T04:54:08.532Z,28.95
2023-04-10T04:56:44.594Z,27.13
2023-04-10T04:59:30.675Z,22.70
2023-04-10T05:02:06.780Z,24.63
2023-04-10T05:04:50.444Z,22.23
2023-04-10T05:07:37.854Z,24.35
2023-04-10T05:10:27.176Z,21.48
2023-04-10T05:13:35.456Z,21.33
2023-04-10T05:16:23.329Z,19.75
2023-04-10T05:19:18.340Z,19.90
2023-04-10T05:21:57.728Z,18.60
2023-04-10T05:24:49.466Z,20.20
2023-04-10T05:27:25.853Z,21.35
2023-04-10T05:30:16.271Z,20.75
2023-04-10T05:33:05.550Z,18.92
2023-04-10T05:35:37.469Z,22.92
2023-04-10T05:38:35.951Z,21.00
2023-04-10T05:41:25.049Z,19.25
2023-04-10T05:44:06.379Z,20.33
2023-04-10T05:46:50.932Z,19.65
2023-04-10T05:49:19.993Z,20.85
2023-04-10T05:52:07.367Z,22.20
2023-04-10T05:55:03.676Z,20.40
2023-04-10T05:57:41.235Z,20.17
2023-04-10T06:00:33.101Z,20.80
2023-04-10T06:03:29.409Z,18.98
2023-04-10T06:06:03.544Z,18.52
2023-04-10T06:08:34.727Z,19.83
2023-04-10T06:11:04.176Z,19.83
2023-04-10T06:13:33.858Z,18.48
2023-04-10T06:16:04.586Z,17.80
2023-04-10T06:18:36.199Z,17.27
2023-04-10T06:21:06.616Z,16.65
2023-04-10T06:23:35.964Z,15.50
2023-04-10T06:26:05.758Z,14.85
2023-04-10T06:28:34.564Z,14.85
2023-04-10T06:31:07.759Z,16.08
2023-04-10T06:33:40.539Z,14.90
2023-04-10T06:36:12.239Z,15.40
2023-04-10T06:38:47.248Z,13.85
2023-04-10T06:41:16.333Z,13.13
2023-04-10T06:43:46.118Z,14.13
2023-04-10T06:46:16.262Z,12.32
2023-04-10T06:48:46.469Z,13.40
2023-04-10T06:51:15.610Z,13.27
2023-04-10T06:53:44.333Z,12.13
2023-04-10T06:56:13.411Z,13.40
2023-04-10T06:58:42.366Z,10.98
2023-04-10T07:01:11.541Z,11.80
2023-04-10T07:03:40.396Z,9.35
2023-04-10T07:06:12.270Z,9.30
2023-04-10T07:08:41.200Z,10.02
2023-04-10T07:11:10.234Z,11.88
2023-04-10T07:13:40.187Z,10.93
2023-04-10T07:16:11.217Z,8.82
2023-04-10T07:18:41.298Z,9.63
2023-04-10T07:21:13.539Z,8.63
2023-04-10T07:23:42.338Z,9.02
2023-04-10T07:26:11.678Z,8.45
2023-04-10T07:28:40.413Z,9.88
2023-04-10T07:31:10.670Z,7.15
2023-04-10T07:33:40.047Z,8.93
2023-04-10T07:36:10.082Z,7.30
2023-04-10T07:38:40.550Z,6.88
2023-04-10T07:41:10.498Z,7.13
2023-04-10T07:43:39.211Z,7.85
2023-04-10T07:46:08.661Z,8.65
2023-04-10T07:48:37.454Z,8.95
2023-04-10T07:51:09.304Z,8.02
2023-04-10T07:53:39.752Z,7.05
2023-04-10T07:56:16.003Z,8.65
2023-04-10T07:58:44.839Z,7.07
2023-04-10T08:01:14.438Z,6.57
2023-04-10T08:03:46.980Z,7.25
2023-04-10T08:06:16.203Z,7.28
2023-04-10T08:08:46.331Z,6.28
2023-04-10T08:11:27.662Z,8.63
2023-04-10T08:13:58.325Z,8.60
2023-04-10T08:16:29.337Z,8.02
2023-04-10T08:19:00.163Z,7.68
2023-04-10T08:21:32.242Z,10.02
2023-04-10T08:24:04.586Z,8.70
2023-04-10T08:26:33.702Z,6.80
2023-04-10T08:29:02.510Z,8.38
2023-04-10T08:31:31.671Z,6.20
2023-04-10T08:34:00.637Z,9.43
2023-04-10T08:36:31.569Z,6.82
2023-04-10T08:39:01.746Z,6.32
2023-04-10T08:41:30.926Z,6.70
2023-04-10T08:43:59.769Z,6.90
2023-04-10T08:46:32.379Z,6.32
2023-04-10T08:49:05.461Z,10.93
2023-04-10T08:51:40.283Z,6.65
2023-04-10T08:54:19.514Z,7.45
2023-04-10T08:56:54.734Z,9.32
2023-04-10T08:59:24.075Z,8.73
2023-04-10T09:01:53.741Z,8.57
2023-04-10T09:04:22.817Z,10.50
2023-04-10T09:06:52.070Z,7.90
2023-04-10T09:09:22.429Z,10.02
2023-04-10T09:12:04.039Z,8.77
2023-04-10T09:14:35.306Z,8.43
2023-04-10T09:17:19.445Z,9.52
2023-04-10T09:19:49.999Z,9.52
2023-04-10T09:22:19.569Z,7.00
2023-04-10T09:24:49.636Z,8.02
2023-04-10T09:27:40.215Z,7.82
2023-04-10T09:30:10.190Z,6.45
2023-04-10T09:32:42.284Z,7.82
2023-04-10T09:35:13.052Z,8.25
2023-04-10T09:37:45.083Z,7.20
2023-04-10T09:40:26.816Z,5.70
2023-04-10T09:42:57.800Z,6.38
2023-04-10T09:45:27.088Z,7.90
2023-04-10T09:48:07.699Z,7.68
2023-04-10T09:50:39.832Z,6.45
2023-04-10T09:53:10.529Z,7.95
2023-04-10T09:55:41.653Z,5.82
2023-04-10T09:58:12.218Z,5.07
2023-04-10T10:00:43.342Z,5.50
2023-04-10T10:03:15.434Z,6.93
2023-04-10T10:05:46.306Z,5.68
2023-04-10T10:08:17.011Z,7.35
2023-04-10T10:10:50.550Z,5.85
2023-04-10T10:13:30.019Z,5.13
2023-04-10T10:16:09.085Z,5.25
2023-04-10T10:18:46.868Z,5.88
2023-04-10T10:21:18.043Z,4.78
2023-04-10T10:23:53.895Z,5.20
2023-04-10T10:26:25.515Z,3.83
2023-04-10T10:28:57.455Z,5.50
2023-04-10T10:31:32.745Z,5.80
2023-04-10T10:34:04.872Z,6.18
2023-04-10T10:36:33.950Z,4.82
2023-04-10T10:39:25.719Z,5.10
2023-04-10T10:42:10.138Z,3.70
2023-04-10T10:44:52.066Z,4.10
2023-04-10T10:47:27.245Z,4.65
2023-04-10T10:49:59.565Z,5.57
2023-04-10T10:52:46.589Z,4.63
2023-04-10T10:55:37.846Z,5.22
2023-04-10T10:58:11.008Z,4.75
2023-04-10T11:01:10.566Z,3.35
2023-04-10T11:03:40.366Z,3.45
2023-04-10T11:06:12.741Z,3.70
2023-04-10T11:08:47.265Z,4.00
2023-04-10T11:11:23.255Z,4.70
2023-04-10T11:14:20.270Z,4.80
2023-04-10T11:16:49.592Z,6.15
2023-04-10T11:19:22.671Z,5.68
2023-04-10T11:22:05.699Z,4.18
2023-04-10T11:24:54.747Z,7.40
2023-04-10T11:27:46.441Z,5.20
2023-04-10T11:30:32.649Z,5.30
2023-04-10T11:33:03.973Z,6.78
2023-04-10T11:35:34.439Z,3.20
2023-04-10T11:38:14.956Z,3.55
2023-04-10T11:41:06.850Z,5.20
2023-04-10T11:43:36.180Z,4.60
2023-04-10T11:46:08.742Z,3.53
2023-04-10T11:48:38.506Z,6.05
2023-04-10T11:51:12.971Z,5.78
2023-04-10T11:53:42.936Z,5.70
2023-04-10T11:56:21.252Z,4.78
2023-04-10T11:58:54.742Z,5.07
2023-04-10T12:01:25.713Z,5.65
2023-04-10T12:03:55.132Z,5.35
2023-04-10T12:06:24.153Z,6.18
2023-04-10T12:08:53.593Z,4.95
2023-04-10T12:11:24.743Z,5.47
2023-04-10T12:13:55.486Z,3.72
2023-04-10T12:16:27.455Z,4.13
2023-04-10T12:18:57.314Z,7.18
2023-04-10T12:21:27.392Z,3.88
2023-04-10T12:23:56.387Z,5.50
2023-04-10T12:26:25.165Z,3.40
2023-04-10T12:28:57.659Z,3.17
2023-04-10T12:31:33.171Z,5.18
2023-04-10T12:34:05.669Z,5.60
2023-04-10T12:36:35.516Z,5.80
2023-04-10T12:39:06.303Z,4.13
2023-04-10T12:41:36.704Z,6.45
2023-04-10T12:44:11.399Z,3.97
2023-04-10T12:46:44.488Z,4.03
2023-04-10T12:49:16.131Z,5.80
2023-04-10T12:51:50.295Z,5.13
2023-04-10T12:54:33.763Z,5.65
2023-04-10T12:57:04.058Z,5.10
2023-04-10T12:59:33.950Z,4.38
2023-04-10T13:02:04.237Z,5.68
2023-04-10T13:04:33.510Z,3.70
2023-04-10T13:07:03.018Z,3.10
2023-04-10T13:09:32.059Z,3.60
2023-04-10T13:12:01.687Z,2.53
2023-04-10T13:14:30.658Z,2.85
2023-04-10T13:16:59.372Z,2.70
2023-04-10T13:19:29.758Z,2.72
2023-04-10T13:22:01.205Z,3.40
2023-04-10T13:24:30.461Z,4.93
2023-04-10T13:26:59.344Z,6.65
2023-04-10T13:29:28.990Z,6.63
2023-04-10T13:31:57.929Z,3.42
2023-04-10T13:34:27.215Z,3.90
2023-04-10T13:36:57.344Z,4.90
2023-04-10T13:39:27.368Z,3.97
2023-04-10T13:41:56.820Z,4.07
2023-04-10T13:44:26.022Z,2.90
2023-04-10T13:46:55.345Z,5.03
2023-04-10T13:49:24.645Z,3.33
2023-04-10T13:51:53.415Z,3.08
2023-04-10T13:54:24.611Z,3.50
2023-04-10T13:56:54.678Z,5.43
2023-04-10T13:59:23.840Z,3.92
2023-04-10T14:01:52.740Z,5.25
2023-04-10T14:04:22.020Z,3.95
2023-04-10T14:06:53.140Z,5.18
2023-04-10T14:09:23.509Z,4.53
2023-04-10T14:11:52.291Z,3.45
2023-04-10T14:14:24.069Z,4.03
2023-04-10T14:16:52.926Z,5.47
2023-04-10T14:19:21.994Z,6.95
2023-04-10T14:21:50.718Z,3.80
2023-04-10T14:24:19.647Z,4.85
2023-04-10T14:26:49.738Z,5.70
2023-04-10T14:29:22.675Z,7.25
2023-04-10T14:31:58.021Z,3.30
2023-04-10T14:34:27.516Z,3.72
2023-04-10T14:36:56.786Z,3.20
2023-04-10T14:39:26.362Z,4.45
2023-04-10T14:41:57.077Z,2.88
2023-04-10T14:44:26.040Z,3.17
2023-04-10T14:46:54.759Z,4.05
2023-04-10T14:49:23.754Z,3.03
2023-04-10T14:51:52.454Z,3.83
2023-04-10T14:54:23.664Z,3.88
2023-04-10T14:56:52.607Z,3.40
2023-04-10T14:59:23.038Z,4.32
2023-04-10T15:01:53.822Z,4.47
2023-04-10T15:04:23.162Z,3.42
2023-04-10T15:06:52.347Z,4.35
2023-04-10T15:09:22.048Z,3.05
2023-04-10T15:11:50.870Z,3.60
2023-04-10T15:14:19.833Z,5.32
2023-04-10T15:16:51.417Z,4.30
2023-04-10T15:19:21.793Z,3.17
2023-04-10T15:21:50.533Z,4.15
2023-04-10T15:24:19.576Z,4.90
2023-04-10T15:26:48.787Z,6.65
2023-04-10T15:29:17.772Z,4.20
2023-04-10T15:31:46.602Z,4.10
2023-04-10T15:34:16.989Z,4.28
2023-04-10T15:36:45.781Z,3.42
2023-04-10T15:39:14.763Z,4.35
2023-04-10T15:41:43.503Z,4.82
2023-04-10T15:44:12.513Z,3.65
2023-04-10T15:46:41.273Z,4.13
2023-04-10T15:49:10.811Z,3.10
2023-04-10T15:51:40.880Z,3.50
2023-04-10T15:54:11.042Z,3.00
2023-04-10T15:56:41.124Z,3.80
2023-04-10T15:59:10.058Z,4.47
2023-04-10T16:01:38.837Z,6.50
2023-04-10T16:04:07.963Z,3.80
2023-04-10T16:06:37.021Z,3.42
2023-04-10T16:09:18.653Z,4.35
2023-04-10T16:11:54.397Z,3.60
2023-04-10T16:14:23.544Z,3.25
2023-04-10T16:16:52.362Z,3.65
2023-04-10T16:19:22.130Z,4.38
2023-04-10T16:21:51.126Z,3.67
2023-04-10T16:24:21.521Z,3.60
2023-04-10T16:26:50.431Z,2.42
2023-04-10T16:29:19.951Z,3.88
2023-04-10T16:31:48.828Z,3.38
2023-04-10T16:34:18.172Z,4.18
2023-04-10T16:36:46.901Z,5.57
2023-04-10T16:39:15.934Z,10.07
2023-04-10T16:41:46.548Z,10.73
2023-04-10T16:44:15.641Z,7.10
2023-04-10T16:46:44.498Z,5.95
2023-04-10T16:49:13.492Z,5.10
2023-04-10T16:51:42.270Z,4.78
2023-04-10T16:54:11.394Z,4.43
2023-04-10T16:56:40.139Z,4.65
2023-04-10T16:59:10.700Z,6.00
2023-04-10T17:01:40.632Z,5.32
2023-04-10T17:04:10.421Z,4.47
2023-04-10T17:06:39.253Z,5.85
2023-04-10T17:09:08.219Z,4.07
2023-04-10T17:11:36.938Z,5.38
2023-04-10T17:14:07.377Z,5.65
2023-04-10T17:16:37.581Z,4.65
2023-04-10T17:19:07.073Z,4.05
2023-04-10T17:21:35.882Z,4.80
2023-04-10T17:24:05.396Z,4.47
2023-04-10T17:26:34.237Z,7.25
2023-04-10T17:29:03.231Z,6.70
2023-04-10T17:31:32.081Z,8.45
2023-04-10T17:34:03.919Z,5.63
2023-04-10T17:36:33.236Z,5.25
2023-04-10T17:39:02.191Z,5.30
2023-04-10T17:41:31.038Z,4.78
2023-04-10T17:44:00.138Z,4.82
2023-04-10T17:46:28.850Z,6.57
2023-04-10T17:49:01.384Z,6.00
2023-04-10T17:51:32.789Z,5.78
2023-04-10T17:54:02.041Z,5.65
2023-04-10T17:56:31.089Z,10.43
2023-04-10T17:59:00.626Z,7.00
2023-04-10T18:01:31.213Z,8.63
2023-04-10T18:04:02.707Z,7.63
2023-04-10T18:06:33.029Z,8.93
2023-04-10T18:09:02.135Z,8.23
2023-04-10T18:11:30.868Z,8.45
2023-04-10T18:13:59.803Z,7.95
2023-04-10T18:16:29.895Z,6.32
2023-04-10T18:18:59.131Z,8.60
2023-04-10T18:21:28.428Z,8.82
2023-04-10T18:23:58.785Z,9.27
2023-04-10T18:26:31.759Z,7.78
2023-04-10T18:29:02.014Z,8.15
2023-04-10T18:31:31.032Z,10.40
2023-04-10T18:34:07.585Z,11.88
2023-04-10T18:36:37.067Z,11.70
2023-04-10T18:39:07.469Z,7.68
2023-04-10T18:41:36.426Z,6.60
2023-04-10T18:44:06.199Z,8.40
2023-04-10T18:46:35.085Z,9.40
2023-04-10T18:49:04.155Z,11.75
2023-04-10T18:51:35.352Z,7.85
2023-04-10T18:54:06.317Z,8.80
2023-04-10T18:56:35.948Z,6.40
2023-04-10T18:59:05.670Z,8.88
2023-04-10T19:01:35.021Z,8.18
2023-04-10T19:04:04.298Z,9.77
2023-04-10T19:06:33.382Z,8.65
2023-04-10T19:09:02.416Z,7.38
2023-04-10T19:11:33.291Z,6.88
2023-04-10T19:14:02.322Z,9.10
2023-04-10T19:19:01.399Z,9.90
2023-04-10T19:21:30.218Z,11.98
2023-04-10T19:23:59.176Z,8.32
2023-04-10T19:26:28.009Z,9.32
2023-04-10T19:28:58.547Z,8.32
2023-04-10T19:31:29.684Z,9.40
2023-04-10T19:33:58.906Z,12.00
2023-04-10T19:36:27.875Z,14.50
2023-04-10T19:38:57.512Z,10.15
2023-04-10T19:41:26.515Z,10.50
2023-04-10T19:43:57.152Z,10.82
2023-04-10T19:46:26.181Z,11.70
2023-04-10T19:48:55.737Z,12.60
2023-04-10T19:51:24.469Z,9.35
2023-04-10T19:53:55.870Z,9.85
2023-04-10T19:56:24.902Z,12.10
2023-04-10T19:58:53.906Z,14.40
2023-04-10T20:01:24.605Z,12.98
2023-04-10T20:03:53.826Z,14.00
2023-04-10T20:06:22.698Z,13.65
2023-04-10T20:08:51.729Z,12.85
2023-04-10T20:11:20.402Z,14.82
2023-04-10T20:13:49.124Z,17.25
2023-04-10T20:16:18.141Z,17.73
2023-04-10T20:18:48.250Z,18.40
2023-04-10T20:21:18.357Z,17.60
2023-04-10T20:23:47.164Z,19.23
2023-04-10T20:26:16.324Z,19.90
2023-04-10T20:28:45.043Z,21.45
2023-04-10T20:31:14.695Z,21.73
2023-04-10T20:33:43.501Z,22.95
2023-04-10T20:36:14.118Z,22.42
2023-04-10T20:38:43.021Z,21.23
2023-04-10T20:41:12.154Z,20.38
2023-04-10T20:43:41.636Z,21.08
2023-04-10T20:46:10.757Z,19.45
2023-04-10T20:48:39.474Z,20.15
2023-04-10T20:51:10.818Z,22.13
2023-04-10T20:53:40.873Z,20.83
2023-04-10T20:56:10.768Z,20.55
2023-04-10T20:58:39.572Z,26.60
2023-04-10T21:01:10.636Z,20.33
2023-04-10T21:03:39.597Z,21.38
2023-04-10T21:06:10.859Z,20.83
2023-04-10T21:08:40.875Z,20.70
2023-04-10T21:11:09.918Z,23.17
2023-04-10T21:13:38.764Z,19.60
2023-04-10T21:16:08.550Z,23.63
2023-04-10T21:18:37.363Z,21.95
2023-04-10T21:21:07.152Z,21.38
2023-04-10T21:23:35.856Z,21.17
2023-04-10T21:26:07.101Z,21.08
2023-04-10T21:28:35.885Z,22.58
2023-04-10T21:31:05.219Z,20.33
2023-04-10T21:33:34.007Z,19.45
2023-04-10T21:36:03.022Z,23.60
2023-04-10T21:38:31.724Z,25.30
2023-04-10T21:41:01.555Z,19.52
2023-04-10T21:43:31.777Z,24.20
2023-04-10T21:46:02.770Z,21.15
2023-04-10T21:48:31.897Z,20.48
2023-04-10T21:51:03.529Z,21.67
2023-04-10T21:53:32.238Z,21.83
2023-04-10T21:56:01.271Z,21.40
2023-04-10T21:58:32.341Z,21.88
2023-04-10T22:01:02.036Z,21.95
2023-04-10T22:03:31.092Z,22.75
2023-04-10T22:06:00.147Z,21.20
2023-04-10T22:08:28.808Z,24.15
2023-04-10T22:10:57.868Z,29.52
2023-04-10T22:13:30.679Z,21.83
2023-04-10T22:16:02.930Z,22.13
2023-04-10T22:18:31.991Z,24.45
2023-04-10T22:21:01.039Z,21.15
2023-04-10T22:23:29.750Z,21.73
2023-04-10T22:26:01.345Z,21.27
2023-04-10T22:28:30.137Z,18.98
2023-04-10T22:30:59.139Z,23.10
2023-04-10T22:33:29.359Z,22.60
2023-04-10T22:35:58.423Z,22.92
2023-04-10T22:38:27.238Z,23.88
2023-04-10T22:40:56.315Z,29.15
2023-04-10T22:43:25.160Z,25.55
2023-04-10T22:45:54.457Z,29.40
2023-04-10T22:48:23.272Z,33.22
2023-04-10T22:50:53.701Z,32.15
2023-04-10T22:53:22.452Z,31.00
2023-04-10T22:55:51.503Z,29.30
2023-04-10T22:58:20.606Z,29.52
2023-04-10T23:00:49.816Z,26.30
2023-04-10T23:03:18.582Z,29.50
2023-04-10T23:05:48.034Z,27.08
2023-04-10T23:08:18.322Z,29.70
2023-04-10T23:10:47.241Z,28.63
2023-04-10T23:13:15.894Z,27.55
2023-04-10T23:15:51.137Z,26.58
2023-04-10T23:18:20.321Z,25.35
2023-04-10T23:20:50.330Z,25.65
2023-04-10T23:23:20.917Z,24.90
2023-04-10T23:25:58.918Z,24.23
2023-04-10T23:28:28.512Z,23.92
2023-04-10T23:30:57.670Z,27.92
2023-04-10T23:33:26.543Z,27.75
2023-04-10T23:35:55.606Z,24.05
2023-04-10T23:38:25.732Z,24.92
2023-04-10T23:40:54.823Z,25.30
2023-04-10T23:43:23.585Z,24.00
2023-04-10T23:45:52.546Z,24.90
2023-04-10T23:48:21.259Z,25.60
2023-04-10T23:50:50.341Z,26.52
2023-04-10T23:53:19.071Z,25.95
2023-04-10T23:55:49.407Z,27.73
2023-04-10T23:58:18.262Z,25.75
